sensor_id;sensor_type;location;lat;lon;timestamp;P1;durP1;ratioP1;P2;durP2;ratioP2
52894;SDS011;38759;53.396;6.722;2024-03-07T11:19:18;54.08;;;23.20;;
52894;SDS011;38759;53.396;6.722;2024-03-07T11:21:53;91.90;;;44.33;;
52894;SDS011;38759;53.396;6.722;2024-03-07T11:24:26;50.75;;;22.92;;
52894;SDS011;38759;53.396;6.722;2024-03-07T11:26:56;62.75;;;30.17;;
52894;SDS011;38759;53.396;6.722;2024-03-07T11:29:38;73.93;;;36.88;;
52894;SDS011;38759;53.396;6.722;2024-03-07T11:32:12;63.22;;;31.15;;
52894;SDS011;38759;53.396;6.722;2024-03-07T11:34:39;55.63;;;28.08;;
52894;SDS011;38759;53.396;6.722;2024-03-07T11:37:16;48.67;;;25.25;;
52894;SDS011;38759;53.396;6.722;2024-03-07T11:40:02;57.88;;;30.38;;
52894;SDS011;38759;53.396;6.722;2024-03-07T11:42:33;44.03;;;22.30;;
52894;SDS011;38759;53.396;6.722;2024-03-07T11:45:00;40.75;;;21.95;;
52894;SDS011;38759;53.396;6.722;2024-03-07T11:47:36;43.40;;;23.80;;
52894;SDS011;38759;53.396;6.722;2024-03-07T11:50:03;46.97;;;21.90;;
52894;SDS011;38759;53.396;6.722;2024-03-07T11:52:33;39.55;;;19.52;;
52894;SDS011;38759;53.396;6.722;2024-03-07T11:55:02;37.60;;;19.73;;
52894;SDS011;38759;53.396;6.722;2024-03-07T11:57:28;42.67;;;20.77;;
52894;SDS011;38759;53.396;6.722;2024-03-07T12:00:00;40.58;;;18.65;;
52894;SDS011;38759;53.396;6.722;2024-03-07T12:02:33;38.40;;;20.08;;
52894;SDS011;38759;53.396;6.722;2024-03-07T12:04:59;47.28;;;24.33;;
52894;SDS011;38759;53.396;6.722;2024-03-07T12:07:25;44.38;;;20.15;;
52894;SDS011;38759;53.396;6.722;2024-03-07T12:09:52;41.70;;;20.52;;
52894;SDS011;38759;53.396;6.722;2024-03-07T12:12:21;38.28;;;20.60;;
52894;SDS011;38759;53.396;6.722;2024-03-07T12:14:48;39.83;;;22.70;;
52894;SDS011;38759;53.396;6.722;2024-03-07T12:17:17;42.35;;;23.10;;
52894;SDS011;38759;53.396;6.722;2024-03-07T12:19:43;45.20;;;22.38;;
52894;SDS011;38759;53.396;6.722;2024-03-07T12:22:11;45.92;;;23.42;;
52894;SDS011;38759;53.396;6.722;2024-03-07T12:24:38;37.90;;;21.02;;
52894;SDS011;38759;53.396;6.722;2024-03-07T12:27:11;40.22;;;20.67;;
52894;SDS011;38759;53.396;6.722;2024-03-07T12:29:38;38.05;;;19.27;;
52894;SDS011;38759;53.396;6.722;2024-03-07T12:32:05;40.00;;;19.42;;
52894;SDS011;38759;53.396;6.722;2024-03-07T12:34:47;35.75;;;19.10;;
52894;SDS011;38759;53.396;6.722;2024-03-07T12:37:13;36.33;;;19.00;;
52894;SDS011;38759;53.396;6.722;2024-03-07T12:39:41;35.90;;;18.77;;
52894;SDS011;38759;53.396;6.722;2024-03-07T12:42:24;38.30;;;19.63;;
52894;SDS011;38759;53.396;6.722;2024-03-07T12:44:50;35.13;;;20.30;;
52894;SDS011;38759;53.396;6.722;2024-03-07T12:47:16;36.63;;;19.75;;
52894;SDS011;38759;53.396;6.722;2024-03-07T12:49:42;36.97;;;20.83;;
52894;SDS011;38759;53.396;6.722;2024-03-07T12:52:09;35.33;;;20.77;;
52894;SDS011;38759;53.396;6.722;2024-03-07T12:54:38;35.42;;;19.92;;
52894;SDS011;38759;53.396;6.722;2024-03-07T12:57:11;33.55;;;18.42;;
52894;SDS011;38759;53.396;6.722;2024-03-07T12:59:40;32.53;;;17.23;;
52894;SDS011;38759;53.396;6.722;2024-03-07T13:02:07;32.55;;;17.65;;
52894;SDS011;38759;53.396;6.722;2024-03-07T13:04:33;27.90;;;16.65;;
52894;SDS011;38759;53.396;6.722;2024-03-07T13:06:59;29.17;;;17.15;;
52894;SDS011;38759;53.396;6.722;2024-03-07T13:09:32;28.92;;;16.98;;
52894;SDS011;38759;53.396;6.722;2024-03-07T13:11:59;31.90;;;16.80;;
52894;SDS011;38759;53.396;6.722;2024-03-07T13:14:29;35.40;;;17.13;;
52894;SDS011;38759;53.396;6.722;2024-03-07T13:17:04;29.02;;;16.33;;
52894;SDS011;38759;53.396;6.722;2024-03-07T13:19:31;30.95;;;17.52;;
52894;SDS011;38759;53.396;6.722;2024-03-07T13:21:57;32.10;;;17.25;;
52894;SDS011;38759;53.396;6.722;2024-03-07T13:24:23;33.05;;;17.67;;
52894;SDS011;38759;53.396;6.722;2024-03-07T13:26:51;30.63;;;17.05;;
52894;SDS011;38759;53.396;6.722;2024-03-07T13:29:18;28.80;;;15.88;;
52894;SDS011;38759;53.396;6.722;2024-03-07T13:31:49;29.20;;;16.58;;
52894;SDS011;38759;53.396;6.722;2024-03-07T13:34:16;27.63;;;15.48;;
52894;SDS011;38759;53.396;6.722;2024-03-07T13:36:43;26.13;;;14.93;;
52894;SDS011;38759;53.396;6.722;2024-03-07T13:39:09;29.23;;;16.08;;
52894;SDS011;38759;53.396;6.722;2024-03-07T13:41:37;37.90;;;17.08;;
52894;SDS011;38759;53.396;6.722;2024-03-07T13:44:03;31.35;;;16.63;;
52894;SDS011;38759;53.396;6.722;2024-03-07T13:46:30;31.40;;;16.10;;
52894;SDS011;38759;53.396;6.722;2024-03-07T13:49:02;26.95;;;15.48;;
52894;SDS011;38759;53.396;6.722;2024-03-07T13:51:41;30.88;;;15.63;;
52894;SDS011;38759;53.396;6.722;2024-03-07T13:54:21;28.75;;;16.83;;
52894;SDS011;38759;53.396;6.722;2024-03-07T14:02:38;29.80;;;15.48;;
52894;SDS011;38759;53.396;6.722;2024-03-07T14:19:44;24.65;;;13.80;;
52894;SDS011;38759;53.396;6.722;2024-03-07T14:30:53;21.80;;;13.82;;
52894;SDS011;38759;53.396;6.722;2024-03-07T14:33:27;23.60;;;13.75;;
52894;SDS011;38759;53.396;6.722;2024-03-07T14:36:06;24.85;;;14.30;;
52894;SDS011;38759;53.396;6.722;2024-03-07T14:38:40;21.85;;;12.98;;
52894;SDS011;38759;53.396;6.722;2024-03-07T14:41:14;22.77;;;13.68;;
52894;SDS011;38759;53.396;6.722;2024-03-07T14:43:41;22.35;;;14.68;;
52894;SDS011;38759;53.396;6.722;2024-03-07T14:46:11;23.23;;;15.15;;
52894;SDS011;38759;53.396;6.722;2024-03-07T14:48:41;20.35;;;13.93;;
52894;SDS011;38759;53.396;6.722;2024-03-07T14:51:07;26.92;;;14.65;;
52894;SDS011;38759;53.396;6.722;2024-03-07T14:53:38;27.27;;;14.25;;
52894;SDS011;38759;53.396;6.722;2024-03-07T14:56:07;24.00;;;14.20;;
52894;SDS011;38759;53.396;6.722;2024-03-07T14:58:34;25.38;;;14.48;;
52894;SDS011;38759;53.396;6.722;2024-03-07T15:01:00;28.13;;;14.45;;
52894;SDS011;38759;53.396;6.722;2024-03-07T15:03:26;23.23;;;14.77;;
52894;SDS011;38759;53.396;6.722;2024-03-07T15:05:53;22.80;;;13.30;;
52894;SDS011;38759;53.396;6.722;2024-03-07T15:08:19;23.48;;;13.25;;
52894;SDS011;38759;53.396;6.722;2024-03-07T15:11:10;20.63;;;12.80;;
52894;SDS011;38759;53.396;6.722;2024-03-07T15:13:45;24.63;;;14.50;;
52894;SDS011;38759;53.396;6.722;2024-03-07T15:16:12;26.85;;;15.25;;
52894;SDS011;38759;53.396;6.722;2024-03-07T15:18:38;25.45;;;14.60;;
52894;SDS011;38759;53.396;6.722;2024-03-07T15:21:04;27.98;;;15.80;;
52894;SDS011;38759;53.396;6.722;2024-03-07T15:23:30;23.00;;;15.05;;
52894;SDS011;38759;53.396;6.722;2024-03-07T15:25:56;23.73;;;15.48;;
52894;SDS011;38759;53.396;6.722;2024-03-07T15:28:22;22.65;;;14.68;;
52894;SDS011;38759;53.396;6.722;2024-03-07T15:30:49;29.27;;;13.88;;
52894;SDS011;38759;53.396;6.722;2024-03-07T15:33:15;22.27;;;12.65;;
52894;SDS011;38759;53.396;6.722;2024-03-07T15:35:40;20.00;;;12.77;;
52894;SDS011;38759;53.396;6.722;2024-03-07T15:38:06;22.83;;;13.48;;
52894;SDS011;38759;53.396;6.722;2024-03-07T15:40:33;21.92;;;12.68;;
52894;SDS011;38759;53.396;6.722;2024-03-07T15:42:59;23.92;;;14.43;;
52894;SDS011;38759;53.396;6.722;2024-03-07T15:45:28;23.25;;;13.77;;
52894;SDS011;38759;53.396;6.722;2024-03-07T15:47:55;25.17;;;14.32;;
52894;SDS011;38759;53.396;6.722;2024-03-07T15:50:25;22.67;;;15.15;;
52894;SDS011;38759;53.396;6.722;2024-03-07T15:52:54;32.75;;;20.60;;
52894;SDS011;38759;53.396;6.722;2024-03-07T15:55:22;26.90;;;18.08;;
52894;SDS011;38759;53.396;6.722;2024-03-07T15:57:56;22.23;;;15.63;;
52894;SDS011;38759;53.396;6.722;2024-03-07T16:00:24;24.65;;;13.43;;
52894;SDS011;38759;53.396;6.722;2024-03-07T16:05:22;19.27;;;11.55;;
52894;SDS011;38759;53.396;6.722;2024-03-07T16:07:52;22.67;;;13.25;;
52894;SDS011;38759;53.396;6.722;2024-03-07T16:10:19;20.00;;;12.85;;
52894;SDS011;38759;53.396;6.722;2024-03-07T16:12:49;20.60;;;13.38;;
52894;SDS011;38759;53.396;6.722;2024-03-07T16:15:15;23.05;;;13.25;;
52894;SDS011;38759;53.396;6.722;2024-03-07T16:17:41;22.42;;;13.48;;
52894;SDS011;38759;53.396;6.722;2024-03-07T16:20:06;24.50;;;13.68;;
52894;SDS011;38759;53.396;6.722;2024-03-07T16:22:44;23.67;;;14.00;;
52894;SDS011;38759;53.396;6.722;2024-03-07T16:25:12;22.33;;;13.82;;
52894;SDS011;38759;53.396;6.722;2024-03-07T16:27:40;23.58;;;14.15;;
52894;SDS011;38759;53.396;6.722;2024-03-07T16:30:10;22.35;;;13.73;;
52894;SDS011;38759;53.396;6.722;2024-03-07T16:32:40;24.35;;;13.70;;
52894;SDS011;38759;53.396;6.722;2024-03-07T16:35:07;24.90;;;13.13;;
52894;SDS011;38759;53.396;6.722;2024-03-07T16:37:37;20.92;;;13.80;;
52894;SDS011;38759;53.396;6.722;2024-03-07T16:40:08;24.00;;;12.75;;
52894;SDS011;38759;53.396;6.722;2024-03-07T16:42:35;17.77;;;11.23;;
52894;SDS011;38759;53.396;6.722;2024-03-07T16:45:09;21.35;;;12.73;;
52894;SDS011;38759;53.396;6.722;2024-03-07T16:47:43;22.75;;;13.38;;
52894;SDS011;38759;53.396;6.722;2024-03-07T16:50:22;26.08;;;12.43;;
52894;SDS011;38759;53.396;6.722;2024-03-07T16:52:55;19.55;;;11.88;;
52894;SDS011;38759;53.396;6.722;2024-03-07T16:55:22;21.55;;;11.68;;
52894;SDS011;38759;53.396;6.722;2024-03-07T16:57:49;19.02;;;10.85;;
52894;SDS011;38759;53.396;6.722;2024-03-07T17:00:18;20.45;;;12.00;;
52894;SDS011;38759;53.396;6.722;2024-03-07T17:05:30;22.15;;;11.50;;
52894;SDS011;38759;53.396;6.722;2024-03-07T17:07:57;26.70;;;11.88;;
52894;SDS011;38759;53.396;6.722;2024-03-07T17:10:27;21.25;;;11.45;;
52894;SDS011;38759;53.396;6.722;2024-03-07T17:12:53;22.27;;;12.45;;
52894;SDS011;38759;53.396;6.722;2024-03-07T17:15:20;22.00;;;12.75;;
52894;SDS011;38759;53.396;6.722;2024-03-07T17:17:48;24.00;;;12.27;;
52894;SDS011;38759;53.396;6.722;2024-03-07T17:20:16;26.27;;;12.07;;
52894;SDS011;38759;53.396;6.722;2024-03-07T17:22:48;24.85;;;12.80;;
52894;SDS011;38759;53.396;6.722;2024-03-07T17:25:18;21.77;;;12.88;;
52894;SDS011;38759;53.396;6.722;2024-03-07T17:27:46;23.10;;;13.52;;
52894;SDS011;38759;53.396;6.722;2024-03-07T17:30:15;20.00;;;13.20;;
52894;SDS011;38759;53.396;6.722;2024-03-07T17:32:47;22.13;;;13.43;;
52894;SDS011;38759;53.396;6.722;2024-03-07T17:35:14;20.65;;;13.52;;
52894;SDS011;38759;53.396;6.722;2024-03-07T17:37:45;26.65;;;13.55;;
52894;SDS011;38759;53.396;6.722;2024-03-07T17:40:12;19.60;;;13.00;;
52894;SDS011;38759;53.396;6.722;2024-03-07T17:42:44;23.77;;;13.10;;
52894;SDS011;38759;53.396;6.722;2024-03-07T17:45:20;28.30;;;13.70;;
52894;SDS011;38759;53.396;6.722;2024-03-07T17:47:49;23.10;;;13.05;;
52894;SDS011;38759;53.396;6.722;2024-03-07T17:50:21;26.13;;;14.88;;
52894;SDS011;38759;53.396;6.722;2024-03-07T17:52:52;35.03;;;18.77;;
52894;SDS011;38759;53.396;6.722;2024-03-07T17:55:22;36.20;;;19.70;;
52894;SDS011;38759;53.396;6.722;2024-03-07T17:57:49;39.33;;;19.83;;
52894;SDS011;38759;53.396;6.722;2024-03-07T18:00:16;44.53;;;21.13;;
52894;SDS011;38759;53.396;6.722;2024-03-07T18:02:58;43.60;;;20.23;;
52894;SDS011;38759;53.396;6.722;2024-03-07T18:05:28;45.45;;;24.58;;
52894;SDS011;38759;53.396;6.722;2024-03-07T18:07:55;47.45;;;24.15;;
52894;SDS011;38759;53.396;6.722;2024-03-07T18:10:24;47.85;;;24.52;;
52894;SDS011;38759;53.396;6.722;2024-03-07T18:12:52;56.17;;;27.50;;
52894;SDS011;38759;53.396;6.722;2024-03-07T18:15:22;43.92;;;25.35;;
52894;SDS011;38759;53.396;6.722;2024-03-07T18:17:52;43.08;;;24.27;;
52894;SDS011;38759;53.396;6.722;2024-03-07T18:20:25;38.22;;;21.23;;
52894;SDS011;38759;53.396;6.722;2024-03-07T18:22:55;45.42;;;23.60;;
52894;SDS011;38759;53.396;6.722;2024-03-07T18:25:24;40.92;;;22.27;;
52894;SDS011;38759;53.396;6.722;2024-03-07T18:27:57;39.95;;;21.63;;
52894;SDS011;38759;53.396;6.722;2024-03-07T18:30:23;40.75;;;22.35;;
52894;SDS011;38759;53.396;6.722;2024-03-07T18:32:50;38.60;;;21.08;;
52894;SDS011;38759;53.396;6.722;2024-03-07T18:35:16;39.10;;;20.95;;
52894;SDS011;38759;53.396;6.722;2024-03-07T18:37:43;39.03;;;23.02;;
52894;SDS011;38759;53.396;6.722;2024-03-07T18:40:13;37.95;;;20.40;;
52894;SDS011;38759;53.396;6.722;2024-03-07T18:42:40;45.83;;;22.75;;
52894;SDS011;38759;53.396;6.722;2024-03-07T18:45:13;43.88;;;23.60;;
52894;SDS011;38759;53.396;6.722;2024-03-07T18:47:49;42.05;;;21.60;;
52894;SDS011;38759;53.396;6.722;2024-03-07T18:52:47;41.08;;;21.40;;
52894;SDS011;38759;53.396;6.722;2024-03-07T18:55:18;38.90;;;22.23;;
52894;SDS011;38759;53.396;6.722;2024-03-07T18:57:54;39.78;;;20.00;;
52894;SDS011;38759;53.396;6.722;2024-03-07T19:00:22;36.33;;;19.92;;
52894;SDS011;38759;53.396;6.722;2024-03-07T19:03:01;32.35;;;16.77;;
52894;SDS011;38759;53.396;6.722;2024-03-07T19:05:33;30.73;;;15.93;;
52894;SDS011;38759;53.396;6.722;2024-03-07T19:08:02;31.35;;;14.93;;
52894;SDS011;38759;53.396;6.722;2024-03-07T19:10:40;30.83;;;15.60;;
52894;SDS011;38759;53.396;6.722;2024-03-07T19:13:09;29.23;;;16.85;;
52894;SDS011;38759;53.396;6.722;2024-03-07T19:15:48;27.88;;;15.52;;
52894;SDS011;38759;53.396;6.722;2024-03-07T19:18:20;31.08;;;16.55;;
52894;SDS011;38759;53.396;6.722;2024-03-07T19:20:47;27.50;;;15.70;;
52894;SDS011;38759;53.396;6.722;2024-03-07T19:23:14;27.88;;;15.50;;
52894;SDS011;38759;53.396;6.722;2024-03-07T19:25:42;29.33;;;15.68;;
52894;SDS011;38759;53.396;6.722;2024-03-07T19:28:09;30.35;;;15.00;;
52894;SDS011;38759;53.396;6.722;2024-03-07T19:30:37;27.85;;;14.98;;
52894;SDS011;38759;53.396;6.722;2024-03-07T19:33:05;26.95;;;14.48;;
52894;SDS011;38759;53.396;6.722;2024-03-07T19:35:40;29.70;;;14.90;;
52894;SDS011;38759;53.396;6.722;2024-03-07T19:38:13;28.27;;;13.93;;
52894;SDS011;38759;53.396;6.722;2024-03-07T19:40:39;25.92;;;13.02;;
52894;SDS011;38759;53.396;6.722;2024-03-07T19:43:05;27.60;;;13.50;;
52894;SDS011;38759;53.396;6.722;2024-03-07T19:45:37;26.55;;;12.77;;
52894;SDS011;38759;53.396;6.722;2024-03-07T19:48:04;25.88;;;13.23;;
52894;SDS011;38759;53.396;6.722;2024-03-07T19:50:30;27.25;;;12.93;;
52894;SDS011;38759;53.396;6.722;2024-03-07T19:53:01;25.65;;;13.55;;
52894;SDS011;38759;53.396;6.722;2024-03-07T19:55:28;30.02;;;12.95;;
52894;SDS011;38759;53.396;6.722;2024-03-07T19:57:59;30.13;;;14.60;;
52894;SDS011;38759;53.396;6.722;2024-03-07T20:00:27;28.02;;;14.85;;
52894;SDS011;38759;53.396;6.722;2024-03-07T20:02:58;24.40;;;13.77;;
52894;SDS011;38759;53.396;6.722;2024-03-07T20:05:32;24.58;;;13.63;;
52894;SDS011;38759;53.396;6.722;2024-03-07T20:07:59;25.33;;;13.70;;
52894;SDS011;38759;53.396;6.722;2024-03-07T20:10:25;24.65;;;13.10;;
52894;SDS011;38759;53.396;6.722;2024-03-07T20:12:54;26.58;;;13.82;;
52894;SDS011;38759;53.396;6.722;2024-03-07T20:15:21;28.25;;;14.60;;
52894;SDS011;38759;53.396;6.722;2024-03-07T20:17:49;29.08;;;13.98;;
52894;SDS011;38759;53.396;6.722;2024-03-07T20:20:15;26.88;;;13.75;;
52894;SDS011;38759;53.396;6.722;2024-03-07T20:25:11;25.20;;;13.35;;
52894;SDS011;38759;53.396;6.722;2024-03-07T20:30:13;31.75;;;13.40;;
52894;SDS011;38759;53.396;6.722;2024-03-07T20:32:40;24.50;;;12.20;;
52894;SDS011;38759;53.396;6.722;2024-03-07T20:35:06;28.75;;;13.73;;
52894;SDS011;38759;53.396;6.722;2024-03-07T20:37:40;26.33;;;12.90;;
52894;SDS011;38759;53.396;6.722;2024-03-07T20:40:06;30.20;;;14.77;;
52894;SDS011;38759;53.396;6.722;2024-03-07T20:42:35;32.20;;;15.70;;
52894;SDS011;38759;53.396;6.722;2024-03-07T20:45:06;26.17;;;14.13;;
52894;SDS011;38759;53.396;6.722;2024-03-07T20:48:07;27.58;;;13.02;;
52894;SDS011;38759;53.396;6.722;2024-03-07T20:50:30;34.67;;;15.70;;
52894;SDS011;38759;53.396;6.722;2024-03-07T20:52:57;29.05;;;14.63;;
52894;SDS011;38759;53.396;6.722;2024-03-07T20:55:23;29.33;;;14.93;;
52894;SDS011;38759;53.396;6.722;2024-03-07T20:57:51;29.73;;;14.70;;
52894;SDS011;38759;53.396;6.722;2024-03-07T21:00:23;27.65;;;15.07;;
52894;SDS011;38759;53.396;6.722;2024-03-07T21:02:50;27.48;;;13.95;;
52894;SDS011;38759;53.396;6.722;2024-03-07T21:05:20;28.15;;;15.63;;
52894;SDS011;38759;53.396;6.722;2024-03-07T21:07:46;31.67;;;15.27;;
52894;SDS011;38759;53.396;6.722;2024-03-07T21:10:16;30.67;;;16.23;;
52894;SDS011;38759;53.396;6.722;2024-03-07T21:12:45;27.45;;;15.25;;
52894;SDS011;38759;53.396;6.722;2024-03-07T21:15:11;29.20;;;15.25;;
52894;SDS011;38759;53.396;6.722;2024-03-07T21:17:40;33.10;;;15.23;;
52894;SDS011;38759;53.396;6.722;2024-03-07T21:20:06;27.95;;;14.93;;
52894;SDS011;38759;53.396;6.722;2024-03-07T21:22:42;32.15;;;17.30;;
52894;SDS011;38759;53.396;6.722;2024-03-07T21:25:10;35.20;;;16.35;;
52894;SDS011;38759;53.396;6.722;2024-03-07T21:27:42;31.27;;;15.88;;
52894;SDS011;38759;53.396;6.722;2024-03-07T21:30:09;40.00;;;16.55;;
52894;SDS011;38759;53.396;6.722;2024-03-07T21:32:35;37.38;;;17.10;;
52894;SDS011;38759;53.396;6.722;2024-03-07T21:35:01;37.88;;;16.00;;
52894;SDS011;38759;53.396;6.722;2024-03-07T21:37:32;35.08;;;14.52;;
52894;SDS011;38759;53.396;6.722;2024-03-07T21:39:59;28.50;;;13.95;;
52894;SDS011;38759;53.396;6.722;2024-03-07T21:42:25;36.72;;;16.75;;
52894;SDS011;38759;53.396;6.722;2024-03-07T21:44:52;31.85;;;16.50;;
52894;SDS011;38759;53.396;6.722;2024-03-07T21:47:18;35.42;;;16.40;;
52894;SDS011;38759;53.396;6.722;2024-03-07T21:49:45;37.78;;;16.42;;
52894;SDS011;38759;53.396;6.722;2024-03-07T21:52:11;35.03;;;17.23;;
52894;SDS011;38759;53.396;6.722;2024-03-07T21:54:42;32.13;;;16.77;;
52894;SDS011;38759;53.396;6.722;2024-03-07T21:57:11;31.42;;;17.15;;
52894;SDS011;38759;53.396;6.722;2024-03-07T21:59:40;37.10;;;18.20;;
52894;SDS011;38759;53.396;6.722;2024-03-07T22:02:06;32.45;;;16.30;;
52894;SDS011;38759;53.396;6.722;2024-03-07T22:04:37;35.42;;;18.25;;
52894;SDS011;38759;53.396;6.722;2024-03-07T22:07:02;34.22;;;18.23;;
52894;SDS011;38759;53.396;6.722;2024-03-07T22:09:28;34.65;;;17.83;;
52894;SDS011;38759;53.396;6.722;2024-03-07T22:11:54;40.45;;;18.90;;
52894;SDS011;38759;53.396;6.722;2024-03-07T22:14:20;36.97;;;18.17;;
52894;SDS011;38759;53.396;6.722;2024-03-07T22:16:51;34.30;;;18.15;;
52894;SDS011;38759;53.396;6.722;2024-03-07T22:19:18;41.25;;;17.77;;
52894;SDS011;38759;53.396;6.722;2024-03-07T22:21:44;38.75;;;16.80;;
52894;SDS011;38759;53.396;6.722;2024-03-07T22:24:11;39.92;;;19.60;;
52894;SDS011;38759;53.396;6.722;2024-03-07T22:26:38;39.13;;;21.08;;
52894;SDS011;38759;53.396;6.722;2024-03-07T22:29:04;40.05;;;20.05;;
52894;SDS011;38759;53.396;6.722;2024-03-07T22:31:34;40.17;;;19.67;;
52894;SDS011;38759;53.396;6.722;2024-03-07T22:34:01;51.42;;;18.15;;
52894;SDS011;38759;53.396;6.722;2024-03-07T22:36:27;42.58;;;21.02;;
52894;SDS011;38759;53.396;6.722;2024-03-07T22:38:53;45.67;;;22.33;;
52894;SDS011;38759;53.396;6.722;2024-03-07T22:41:19;47.42;;;21.98;;
52894;SDS011;38759;53.396;6.722;2024-03-07T22:43:45;48.70;;;23.48;;
52894;SDS011;38759;53.396;6.722;2024-03-07T22:46:10;50.00;;;21.65;;
52894;SDS011;38759;53.396;6.722;2024-03-07T22:48:37;51.72;;;25.67;;
52894;SDS011;38759;53.396;6.722;2024-03-07T22:51:06;53.53;;;25.65;;
52894;SDS011;38759;53.396;6.722;2024-03-07T22:53:35;55.72;;;26.05;;
52894;SDS011;38759;53.396;6.722;2024-03-07T22:56:01;55.60;;;26.27;;
52894;SDS011;38759;53.396;6.722;2024-03-07T22:58:28;56.58;;;26.20;;
52894;SDS011;38759;53.396;6.722;2024-03-07T23:00:53;62.35;;;24.85;;
52894;SDS011;38759;53.396;6.722;2024-03-07T23:03:19;57.20;;;25.52;;
52894;SDS011;38759;53.396;6.722;2024-03-07T23:05:45;51.30;;;24.88;;
52894;SDS011;38759;53.396;6.722;2024-03-07T23:08:11;51.33;;;23.80;;
52894;SDS011;38759;53.396;6.722;2024-03-07T23:10:38;51.65;;;23.40;;
52894;SDS011;38759;53.396;6.722;2024-03-07T23:13:04;56.22;;;23.17;;
52894;SDS011;38759;53.396;6.722;2024-03-07T23:15:30;61.45;;;27.23;;
52894;SDS011;38759;53.396;6.722;2024-03-07T23:17:56;58.47;;;27.20;;
52894;SDS011;38759;53.396;6.722;2024-03-07T23:20:24;58.63;;;27.13;;
52894;SDS011;38759;53.396;6.722;2024-03-07T23:22:51;58.83;;;26.73;;
52894;SDS011;38759;53.396;6.722;2024-03-07T23:25:21;53.55;;;25.83;;
52894;SDS011;38759;53.396;6.722;2024-03-07T23:27:47;56.30;;;24.67;;
52894;SDS011;38759;53.396;6.722;2024-03-07T23:30:14;57.47;;;26.95;;
52894;SDS011;38759;53.396;6.722;2024-03-07T23:32:49;62.10;;;28.67;;
52894;SDS011;38759;53.396;6.722;2024-03-07T23:35:16;61.35;;;29.60;;
52894;SDS011;38759;53.396;6.722;2024-03-07T23:37:43;62.53;;;29.23;;
52894;SDS011;38759;53.396;6.722;2024-03-07T23:40:12;58.58;;;28.63;;
52894;SDS011;38759;53.396;6.722;2024-03-07T23:42:44;59.15;;;27.80;;
52894;SDS011;38759;53.396;6.722;2024-03-07T23:45:13;54.92;;;26.70;;
52894;SDS011;38759;53.396;6.722;2024-03-07T23:47:43;61.65;;;29.17;;
52894;SDS011;38759;53.396;6.722;2024-03-07T23:50:09;60.35;;;27.10;;
52894;SDS011;38759;53.396;6.722;2024-03-07T23:52:39;55.30;;;25.48;;
52894;SDS011;38759;53.396;6.722;2024-03-07T23:55:06;59.92;;;27.85;;
52894;SDS011;38759;53.396;6.722;2024-03-07T23:57:33;61.30;;;27.30;;
52894;SDS011;38759;53.396;6.722;2024-03-07T23:59:59;59.80;;;27.27;;
